Bookmark and Share
Track history (hours):
 

Dorothea

More information available from US FCC via Universal Licensing System and Coast Guard Vessel Documentation Center.

Last reported at 2013-Sep-12 15:33 UTC. Time now 2014-Apr-17 15:32 UTC.
Position N 47°40' W 122°24'.
Warning: this ship's position is months out of date.

Length 26 m.

Type: Fishing. MMSI: 367026930.

NotesDate/timePositionNaut miles runAvg speedWind from/ knotsBaromVisibWave heightAir tempDewpointWater temp
2013-Sep-12 15:33N 47°40' W 122°24'1 1.2
2013-Sep-12 14:33N 47°41' W 122°25'6 6.5
2013-Sep-12 13:33N 47°47' W 122°27'8 7.8
2013-Sep-12 12:33N 47°55' W 122°30'7 7.0
2013-Sep-12 11:33N 47°60' W 122°37'6 6.2
2013-Sep-12 10:33N 48°06' W 122°40'5 5.3
2013-Sep-12 09:33N 48°09' W 122°46'4 4.4
2013-Sep-12 08:33N 48°13' W 122°50'7 7.2
2013-Sep-12 07:33N 48°20' W 122°47'9 8.8
2013-Sep-12 06:33N 48°29' W 122°44'9 8.9
2013-Sep-12 05:33N 48°37' W 122°38'8 7.7
2013-Sep-12 04:33N 48°43' W 122°32'1 1.1
2013-Sep-12 03:25N 48°45' W 122°31'0 0.0
2013-Sep-12 02:29N 48°45' W 122°31'0 0.0
2013-Sep-11 02:30N 48°44' W 122°31'0 0.0
2013-Sep-11 00:32N 48°44' W 122°31'0 0.0
2013-Sep-10 20:33N 48°44' W 122°31'0 0.0
2013-Sep-10 19:33N 48°44' W 122°31'0 0.3
2013-Sep-10 18:32N 48°44' W 122°32'5 5.0
2013-Sep-10 17:31N 48°39' W 122°34'1 0.3
2013-Sep-10 14:10N 48°39' W 122°35'0 0.0
2013-Sep-10 11:29N 48°39' W 122°35'0 0.0
2013-Sep-10 10:33N 48°39' W 122°35'0 0.0
2013-Sep-10 08:29N 48°39' W 122°35'0 0.0
2013-Sep-10 07:18N 48°39' W 122°35'0 0.0
2013-Sep-10 05:31N 48°39' W 122°35'0 0.0
2013-Sep-10 04:27N 48°39' W 122°35'0 0.0
2013-Sep-10 01:33N 48°39' W 122°35'0 0.0
2013-Sep-10 00:33N 48°39' W 122°35'0 0.0
2013-Sep-09 23:33N 48°39' W 122°35'0 0.0
2013-Sep-09 22:33N 48°39' W 122°36'7 6.9
2013-Sep-09 21:33N 48°41' W 122°45'7 7.2
2013-Sep-09 20:33N 48°44' W 122°55'6 6.0
2013-Sep-09 19:33N 48°40' W 123°02'5 5.1
2013-Sep-09 18:33N 48°38' W 123°09'1 0.6
2013-Sep-09 17:32N 48°37' W 123°10'0 0.0
2013-Sep-09 16:33N 48°37' W 123°10'0 0.0
2013-Sep-09 15:33N 48°37' W 123°10'0 0.0
2013-Sep-09 14:31N 48°37' W 123°10'0 0.0
2013-Sep-09 13:33N 48°37' W 123°10'0 0.0
2013-Sep-09 12:33N 48°37' W 123°10'0 0.0
2013-Sep-09 11:33N 48°37' W 123°10'0 0.0
2013-Sep-09 10:33N 48°37' W 123°10'0 0.0
2013-Sep-09 09:33N 48°37' W 123°10'0 0.0
2013-Sep-09 08:32N 48°37' W 123°10'0 0.0
2013-Sep-09 07:33N 48°37' W 123°10'0 0.0
2013-Sep-09 06:33N 48°37' W 123°10'0 0.0
2013-Sep-09 05:32N 48°37' W 123°10'0 0.0
2013-Sep-09 04:33N 48°37' W 123°10'0 0.0
2013-Sep-09 03:33N 48°37' W 123°10'0 0.0
2013-Sep-09 02:33N 48°37' W 123°10'0 0.0
2013-Sep-09 01:33N 48°37' W 123°10'0 0.0
2013-Sep-09 00:33N 48°37' W 123°10'0 0.0
2013-Sep-08 23:33N 48°37' W 123°10'3 2.7
2013-Sep-08 22:33N 48°35' W 123°12'6 6.3
2013-Sep-08 21:33N 48°30' W 123°08'4 3.6
2013-Sep-08 20:33N 48°27' W 123°04'2 1.9
2013-Sep-08 19:33N 48°27' W 123°01'3 2.9
2013-Sep-08 18:33N 48°28' W 123°05'5 4.6
2013-Sep-08 17:33N 48°31' W 123°10'6 6.2
2013-Sep-08 16:33N 48°37' W 123°12'1 0.9
2013-Sep-08 15:33N 48°37' W 123°10'0 0.0
2013-Sep-08 14:33N 48°37' W 123°10'0 0.0
2013-Sep-08 13:33N 48°37' W 123°10'0 0.0
2013-Sep-08 12:33N 48°37' W 123°10'0 0.0
2013-Sep-08 11:33N 48°37' W 123°10'0 0.0
2013-Sep-08 10:33N 48°37' W 123°10'0 0.0
2013-Sep-08 09:33N 48°37' W 123°10'0 0.0
2013-Sep-08 08:33N 48°37' W 123°10'0 0.0
2013-Sep-08 07:33N 48°37' W 123°10'0 0.0
2013-Sep-08 06:33N 48°37' W 123°10'0 0.1
2013-Sep-08 05:33N 48°37' W 123°10'8 7.6
2013-Sep-08 04:33N 48°41' W 123°00'7 6.7
2013-Sep-08 03:34N 48°43' W 122°50'7 7.1
2013-Sep-08 02:33N 48°39' W 122°41'6 5.7
2013-Sep-08 01:33N 48°41' W 122°33'3 3.4
2013-Sep-08 00:33N 48°44' W 122°31'0 0.0
2013-Sep-07 23:32N 48°44' W 122°31'0 0.0
2013-Sep-07 22:33N 48°44' W 122°31'0 0.0
2013-Sep-07 21:33N 48°44' W 122°31'0 0.1
2013-Sep-07 20:33N 48°44' W 122°31'5 5.5
2013-Sep-07 19:33N 48°42' W 122°39'9 8.5
2013-Sep-07 18:31N 48°48' W 122°48'8 8.3
2013-Sep-07 17:33N 48°54' W 122°56'6 6.0
2013-Sep-07 16:33N 48°58' W 123°03'0 0.0
2013-Sep-07 15:34N 48°58' W 123°03'0 0.0
2013-Sep-07 14:33N 48°58' W 123°03'0 0.0
2013-Sep-07 13:33N 48°58' W 123°03'0 0.0
2013-Sep-07 12:27N 48°58' W 123°03'0 0.0
2013-Sep-07 11:30N 48°58' W 123°03'0 0.0
2013-Sep-07 10:30N 48°58' W 123°03'0 0.0
2013-Sep-07 09:33N 48°58' W 123°03'0 0.0
2013-Sep-07 08:26N 48°58' W 123°03'0 0.0
2013-Sep-07 07:33N 48°58' W 123°03'0 0.0
2013-Sep-07 06:32N 48°58' W 123°03'0 0.0
2013-Sep-07 05:33N 48°58' W 123°03'0 0.0
2013-Sep-07 04:33N 48°58' W 123°03'0 0.0
2013-Sep-07 03:30N 48°58' W 123°03'0 0.0
2013-Sep-07 02:30N 48°58' W 123°03'0 0.0
2013-Sep-07 01:33N 48°58' W 123°03'0 0.0
2013-Sep-07 00:33N 48°58' W 123°03'0 0.0
2013-Sep-06 23:33N 48°58' W 123°03'0 0.0
2013-Sep-06 22:33N 48°58' W 123°03'0 0.0
2013-Sep-06 21:33N 48°58' W 123°03'0 0.0
2013-Sep-06 20:32N 48°58' W 123°03'0 0.0
2013-Sep-06 19:28N 48°58' W 123°03'0 0.0
2013-Sep-06 18:33N 48°58' W 123°03'0 0.0
2013-Sep-06 17:32N 48°58' W 123°03'0 0.0
2013-Sep-06 16:33N 48°58' W 123°03'0 0.0
2013-Sep-06 15:33N 48°58' W 123°03'0 0.0
2013-Sep-06 14:33N 48°58' W 123°03'0 0.0
2013-Sep-06 12:33N 48°58' W 123°03'0 0.0
2013-Sep-06 11:30N 48°58' W 123°03'0 0.0
2013-Sep-06 10:25N 48°58' W 123°03'0 0.0
2013-Sep-06 09:32N 48°58' W 123°03'0 0.0
2013-Sep-06 08:33N 48°58' W 123°03'1 0.7
2013-Sep-06 07:28N 48°57' W 123°03'7 7.3
2013-Sep-06 06:33N 48°51' W 122°58'7 6.8
2013-Sep-06 05:33N 48°47' W 122°50'6 6.2
2013-Sep-06 04:33N 48°43' W 122°44'6 6.4
2013-Sep-06 03:33N 48°38' W 122°37'1 1.0
2013-Sep-06 02:32N 48°39' W 122°35'0 0.0
2013-Sep-06 01:33N 48°39' W 122°35'0 0.0
2013-Sep-06 00:33N 48°39' W 122°35'0 0.0
2013-Sep-05 23:33N 48°39' W 122°35'0 0.0
2013-Sep-05 22:33N 48°39' W 122°35'0 0.0
2013-Sep-05 21:33N 48°39' W 122°35'1 0.2
2013-Sep-05 16:28N 48°39' W 122°34'6 6.3
2013-Sep-05 15:33N 48°44' W 122°31'0 0.0
2013-Sep-05 14:28N 48°44' W 122°31'0 0.0
2013-Sep-05 13:19N 48°44' W 122°31'0 0.0
2013-Sep-05 12:23N 48°44' W 122°31'0 0.0
2013-Sep-05 11:30N 48°44' W 122°31'0 0.0
2013-Sep-05 10:28N 48°44' W 122°31'0 0.0
2013-Sep-05 09:31N 48°44' W 122°31'0 0.0
2013-Sep-05 08:33N 48°44' W 122°31'0 0.0
2013-Sep-05 07:33N 48°44' W 122°31'0 0.0
2013-Sep-05 06:30N 48°44' W 122°31'0 0.0
2013-Sep-05 05:33N 48°44' W 122°31'0 0.0
2013-Sep-05 04:33N 48°44' W 122°31'0 0.0
2013-Sep-05 03:33N 48°44' W 122°31'1 0.7
2013-Sep-05 02:29N 48°45' W 122°30'0 0.5
2013-Sep-05 01:32N 48°45' W 122°30'0 0.0
2013-Sep-04 13:12N 48°45' W 122°30'0 0.0
2013-Sep-04 12:33N 48°45' W 122°30'0 0.0
2013-Sep-04 11:33N 48°45' W 122°30'0 0.0
2013-Sep-04 10:33N 48°45' W 122°30'0 0.0
2013-Sep-04 09:33N 48°45' W 122°30'0 0.0
2013-Sep-04 08:33N 48°45' W 122°30'0 0.0
2013-Sep-04 06:05N 48°45' W 122°30'2 0.3
2013-Sep-04 00:10N 48°44' W 122°32'0 0.0
2013-Sep-03 23:31N 48°44' W 122°32'0 0.0
2013-Sep-03 22:03N 48°44' W 122°32'0 0.0
2013-Sep-03 21:28N 48°44' W 122°32'0 0.0
2013-Sep-03 20:33N 48°44' W 122°32'0 0.0
2013-Sep-03 19:28N 48°44' W 122°32'0 0.0
2013-Sep-03 18:32N 48°44' W 122°32'0 0.0
2013-Sep-03 17:31N 48°44' W 122°32'0 0.0
2013-Sep-03 16:27N 48°44' W 122°32'0 0.0
2013-Sep-03 15:10N 48°44' W 122°32'0 0.0
2013-Sep-03 14:30N 48°44' W 122°32'0 0.0
2013-Sep-03 13:33N 48°44' W 122°32'0 0.0
2013-Sep-03 12:32N 48°44' W 122°32'0 0.0
2013-Sep-03 11:32N 48°44' W 122°32'0 0.0
2013-Sep-03 10:25N 48°44' W 122°32'0 0.0
2013-Sep-03 09:33N 48°44' W 122°32'0 0.0
2013-Sep-03 08:24N 48°44' W 122°32'0 0.0
2013-Sep-03 07:33N 48°44' W 122°32'2 0.5
2013-Sep-03 02:33N 48°42' W 122°33'6 5.7
2013-Sep-03 01:33N 48°39' W 122°40'8 7.9
2013-Sep-03 00:33N 48°43' W 122°50'6 6.5
2013-Sep-02 23:33N 48°41' W 123°00'6 6.3
2013-Sep-02 22:32N 48°38' W 123°08'1 1.2
2013-Sep-02 21:33N 48°37' W 123°10'0 0.0
2013-Sep-02 20:33N 48°37' W 123°10'0 0.0
2013-Sep-02 19:33N 48°37' W 123°10'0 0.0
2013-Sep-02 18:33N 48°37' W 123°10'0 0.0
2013-Sep-02 17:33N 48°37' W 123°10'0 0.0
2013-Sep-02 16:32N 48°37' W 123°10'  

Dump ship's entire track history

sailing weather and tide predictions

Dorothea — WDC4584 — position and weather